RJFMRJDC

Guest
Details From RJFM - MIYAZAKI
To RJDC - YAMAGUCHI UBE
Flight Number -
Tags generated
Created
Modified
Stats Distance 124 nm / 229 km
Max Altitude 14,400 ft / 4,389 m
Waypoints 3
Social Downloads 7
Likes 0
Share VATSIM

Download

Looking for another format? Having issues loading an existing format? Contact us
Advertisement - Login to hide

Notes

Basic altitude profile: - Ascent Rate: 2500ft/min - Ascent Speed: 250kts - Cruise Altitude: 35000ft - Cruise Speed: 420kts - Descent Rate: 1500ft/min - Descent Speed: 250kts Options: - Use NATs: yes - Use PACOTS: yes - Use low airways: yes - Use high airways: yes

Route

RJFM SOBOH RJDC

ID Type Via Altitude Latitude Longitude Leg Dist Tot Dist Heading (true) Name
O RJFM APT - 0 ft / 0 m 31.87713˚ 131.44845˚ - 0 nm - MIYAZAKI
SOBOH FIX - 14,400 ft / 4,389 m 32.81422˚ 131.40261˚ 56 nm 56 nm 358° / 358° -
O RJDC APT - 0 ft / 0 m 33.92991˚ 131.27877˚ 67 nm 123 nm 355° / 355° YAMAGUCHI UBE

Altitude Profile

Advertisement - Login to hide

RJFM

Details ICAO RJFM (KMI)
Name MIYAZAKI
Region Japan
Timezone Asia/Tokyo (UTC+9.0)
Stats Elevation 20 ft / 6 m (AMSL)
Location 31.877128° 131.448447°
Runways 1
Magnetic Variation 6.967° W

METAR

RJFM 270300Z 08005KT 9999 FEW030 SCT/// 23/18 Q1012

Decode

TAF

TAF RJFM 262307Z 2700/2806 34005KT 9999 FEW010 BECMG 2700/2702 06008KT BECMG 2710/2712 33005KT BECMG 2718/2721 11008KT TEMPO 2800/2806 4000 -SHRA BR FEW003 SCT005 BKN009

Decode

Departure Runways

ID Width Length Bearing (true) Bearing (mag) Surface Threshold Offset Overrun Length
09 150 ft / 46 m 8,187 ft / 2,496 m 85.16° 92.13° Asphalt 0 ft / 0 m 200 ft / 61 m
27 150 ft / 46 m 8,187 ft / 2,496 m 265.18° 272.15° Asphalt 0 ft / 0 m 200 ft / 61 m

RJDC

Details ICAO RJDC (UBJ)
Name YAMAGUCHI UBE
Region Japan
Timezone Asia/Tokyo (UTC+9.0)
Stats Elevation 23 ft / 7 m (AMSL)
Location 33.929913° 131.278765°
Runways 1
Magnetic Variation 7.595° W

METAR

RJDC 270300Z 08010KT CAVOK 22/18 Q1011

Decode

TAF

Not found

Destination Runways

ID Width Length Bearing (true) Bearing (mag) Surface Threshold Offset Overrun Length
07 150 ft / 46 m 8,196 ft / 2,498 m 62.16° 69.75° Asphalt 0 ft / 0 m 210 ft / 64 m
25 150 ft / 46 m 8,196 ft / 2,498 m 242.17° 249.76° Asphalt 0 ft / 0 m 210 ft / 64 m

Approach Navaids

Runway Type Ident Frequency Range Bearing (true) Bearing (mag) Slope Elevation
07 Localiser IUB 110.10 MHz 18 nm / 33 km 62.16° 69.76° - 23 ft / 7 m (AMSL)
07 Glidescope IUB 110.10 MHz 10 nm / 19 km 62.16° 69.76° 3.00° 39 ft / 12 m (AMSL)

Popular Alternatives